createdAt,value
2022-09-02T00:01:33.654Z,99.90
2022-09-02T00:04:14.708Z,99.90
2022-09-02T00:06:48.059Z,99.90
2022-09-02T00:09:24.026Z,99.90
2022-09-02T00:11:57.028Z,99.90
2022-09-02T00:14:30.954Z,99.90
2022-09-02T00:17:04.039Z,99.90
2022-09-02T00:19:36.536Z,99.90
2022-09-02T00:22:08.254Z,99.90
2022-09-02T00:24:40.762Z,99.90
2022-09-02T00:27:12.436Z,99.90
2022-09-02T00:29:44.982Z,99.90
2022-09-02T00:32:16.682Z,99.90
2022-09-02T00:34:49.376Z,99.90
2022-09-02T00:37:21.108Z,99.90
2022-09-02T00:39:53.893Z,99.90
2022-09-02T00:42:26.307Z,99.90
2022-09-02T00:44:58.818Z,99.90
2022-09-02T00:47:31.186Z,99.90
2022-09-02T00:50:04.906Z,99.90
2022-09-02T00:53:03.011Z,99.90
2022-09-02T00:55:38.496Z,99.90
2022-09-02T00:58:16.775Z,99.90
2022-09-02T01:00:52.946Z,99.90
2022-09-02T01:03:26.520Z,99.90
2022-09-02T01:05:59.733Z,99.90
2022-09-02T01:08:34.896Z,99.90
2022-09-02T01:11:07.241Z,99.90
2022-09-02T01:13:41.485Z,99.90
2022-09-02T01:16:28.429Z,99.90
2022-09-02T01:19:03.699Z,99.90
2022-09-02T01:21:35.784Z,99.90
2022-09-02T01:24:07.759Z,99.90
2022-09-02T01:26:40.308Z,99.90
2022-09-02T01:29:12.610Z,99.90
2022-09-02T01:31:44.409Z,99.90
2022-09-02T01:34:17.090Z,99.90
2022-09-02T01:36:48.809Z,99.90
2022-09-02T01:39:21.339Z,99.90
2022-09-02T01:41:53.616Z,99.90
2022-09-02T01:44:27.542Z,99.90
2022-09-02T01:47:00.305Z,99.90
2022-09-02T01:49:33.379Z,99.90
2022-09-02T01:52:09.391Z,99.90
2022-09-02T01:54:42.561Z,99.90
2022-09-02T01:57:14.771Z,99.90
2022-09-02T01:59:47.740Z,99.90
2022-09-02T02:02:22.721Z,99.90
2022-09-02T02:04:54.893Z,99.90
2022-09-02T02:07:27.858Z,99.90
2022-09-02T02:09:59.820Z,99.90
2022-09-02T02:12:34.075Z,99.90
2022-09-02T02:15:09.338Z,99.90
2022-09-02T02:17:41.971Z,99.90
2022-09-02T02:20:15.080Z,99.90
2022-09-02T02:22:47.702Z,99.90
2022-09-02T02:25:19.887Z,99.90
2022-09-02T02:27:54.489Z,99.90
2022-09-02T02:30:28.830Z,99.90
2022-09-02T02:33:00.506Z,99.90
2022-09-02T02:35:33.026Z,99.90
2022-09-02T02:38:04.872Z,99.90
2022-09-02T02:40:37.847Z,99.90
2022-09-02T02:43:09.842Z,99.90
2022-09-02T02:45:42.678Z,99.90
2022-09-02T02:48:14.953Z,99.90
2022-09-02T02:50:48.064Z,99.90
2022-09-02T02:53:20.700Z,99.90
2022-09-02T02:55:52.410Z,99.90
2022-09-02T02:58:25.289Z,99.90
2022-09-02T03:00:57.589Z,99.90
2022-09-02T03:03:30.414Z,99.90
2022-09-02T03:06:03.942Z,99.90
2022-09-02T03:08:37.486Z,99.90
2022-09-02T03:11:12.714Z,99.90
2022-09-02T03:13:46.174Z,99.90
2022-09-02T03:16:20.249Z,99.90
2022-09-02T03:18:52.573Z,99.90
2022-09-02T03:21:25.139Z,99.90
2022-09-02T03:23:57.979Z,99.90
2022-09-02T03:26:30.653Z,99.90
2022-09-02T03:29:04.099Z,99.90
2022-09-02T03:31:36.897Z,99.90
2022-09-02T03:34:09.688Z,99.90
2022-09-02T03:36:44.188Z,99.90
2022-09-02T03:39:20.365Z,99.90
2022-09-02T03:41:53.994Z,99.90
2022-09-02T03:44:26.105Z,99.90
2022-09-02T03:46:58.645Z,99.90
2022-09-02T03:49:31.368Z,99.90
2022-09-02T03:52:03.308Z,99.90
2022-09-02T03:54:35.874Z,99.90
2022-09-02T03:57:08.848Z,99.90
2022-09-02T03:59:41.776Z,99.90
2022-09-02T04:02:14.499Z,99.90
2022-09-02T04:04:47.995Z,99.90
2022-09-02T04:07:21.479Z,99.90
2022-09-02T04:09:54.830Z,99.90
2022-09-02T04:12:32.359Z,99.90
2022-09-02T04:15:06.272Z,99.90
2022-09-02T04:17:39.930Z,99.90
2022-09-02T04:20:13.841Z,99.90
2022-09-02T04:22:46.577Z,99.90
2022-09-02T04:25:18.705Z,99.90
2022-09-02T04:27:52.352Z,99.90
2022-09-02T04:30:25.778Z,99.90
2022-09-02T04:32:57.822Z,99.90
2022-09-02T04:35:30.610Z,99.90
2022-09-02T04:38:02.934Z,99.90
2022-09-02T04:40:39.717Z,99.90
2022-09-02T04:43:12.310Z,99.90
2022-09-02T04:45:45.497Z,99.90
2022-09-02T04:48:19.961Z,99.90
2022-09-02T04:50:54.200Z,99.90
2022-09-02T04:53:26.341Z,99.90
2022-09-02T04:55:59.127Z,99.90
2022-09-02T04:58:31.528Z,99.90
2022-09-02T05:01:08.449Z,99.90
2022-09-02T05:03:42.171Z,99.90
2022-09-02T05:06:15.534Z,99.90
2022-09-02T05:08:48.764Z,99.90
2022-09-02T05:11:23.331Z,99.90
2022-09-02T05:13:56.234Z,99.90
2022-09-02T05:16:33.973Z,99.90
2022-09-02T05:19:07.038Z,99.90
2022-09-02T05:21:44.886Z,99.90
2022-09-02T05:24:26.468Z,99.90
2022-09-02T05:26:59.639Z,99.90
2022-09-02T05:29:33.870Z,99.90
2022-09-02T05:32:08.069Z,99.90
2022-09-02T05:34:43.552Z,99.90
2022-09-02T05:37:16.007Z,99.90
2022-09-02T05:39:48.769Z,99.90
2022-09-02T05:42:21.880Z,99.90
2022-09-02T05:44:56.760Z,99.90
2022-09-02T05:47:29.402Z,99.90
2022-09-02T05:50:03.150Z,99.90
2022-09-02T05:52:38.597Z,99.90
2022-09-02T05:55:11.281Z,99.90
2022-09-02T05:57:46.036Z,99.90
2022-09-02T06:00:18.694Z,99.90
2022-09-02T06:03:00.356Z,99.90
2022-09-02T06:05:38.306Z,99.90
2022-09-02T06:08:25.968Z,99.90
2022-09-02T06:10:57.986Z,99.90
2022-09-02T06:13:34.304Z,99.90
2022-09-02T06:16:10.920Z,99.90
2022-09-02T06:18:48.026Z,99.90
2022-09-02T06:21:21.472Z,99.90
2022-09-02T06:23:56.460Z,99.90
2022-09-02T06:26:31.889Z,99.90
2022-09-02T06:29:07.212Z,99.90
2022-09-02T06:31:44.046Z,99.90
2022-09-02T06:34:17.840Z,99.90
2022-09-02T06:36:50.622Z,99.90
2022-09-02T06:39:26.375Z,99.90
2022-09-02T06:42:00.971Z,99.90
2022-09-02T06:44:35.737Z,99.90
2022-09-02T06:47:08.786Z,99.90
2022-09-02T06:49:41.507Z,99.90
2022-09-02T06:52:14.722Z,99.90
2022-09-02T06:54:49.727Z,99.90
2022-09-02T06:57:22.196Z,99.90
2022-09-02T07:00:02.332Z,99.90
2022-09-02T07:02:37.393Z,99.90
2022-09-02T07:05:10.281Z,99.90
2022-09-02T07:07:44.296Z,99.90
2022-09-02T07:10:19.228Z,99.90
2022-09-02T07:12:55.593Z,99.90
2022-09-02T07:15:28.822Z,99.90
2022-09-02T07:18:01.232Z,99.90
2022-09-02T07:20:38.825Z,99.90
2022-09-02T07:23:10.542Z,99.90
2022-09-02T07:25:43.823Z,99.90
2022-09-02T07:28:16.796Z,99.90
2022-09-02T07:30:50.176Z,99.90
2022-09-02T07:33:24.162Z,99.90
2022-09-02T07:35:57.403Z,99.90
2022-09-02T07:38:30.954Z,99.90
2022-09-02T07:41:06.308Z,99.90
2022-09-02T07:43:41.041Z,99.90
2022-09-02T07:46:15.197Z,97.40
2022-09-02T07:48:50.091Z,95.30
2022-09-02T07:51:23.509Z,93.60
2022-09-02T07:54:00.460Z,92.70
2022-09-02T07:56:32.451Z,91.70
2022-09-02T07:59:05.950Z,93.30
2022-09-02T08:01:38.684Z,92.70
2022-09-02T08:04:11.417Z,92.60
2022-09-02T08:06:43.244Z,91.70
2022-09-02T08:09:15.798Z,91.10
2022-09-02T08:11:48.776Z,90.80
2022-09-02T08:14:26.356Z,90.50
2022-09-02T08:16:58.284Z,90.20
2022-09-02T08:19:31.451Z,91.00
2022-09-02T08:22:05.731Z,90.60
2022-09-02T08:24:37.565Z,90.70
2022-09-02T08:27:10.019Z,90.40
2022-09-02T08:29:42.132Z,89.60
2022-09-02T08:32:14.020Z,89.60
2022-09-02T08:34:46.758Z,87.90
2022-09-02T08:37:19.564Z,85.90
2022-09-02T08:39:51.836Z,85.10
2022-09-02T08:42:28.199Z,86.10
2022-09-02T08:45:06.099Z,87.90
2022-09-02T08:47:40.344Z,87.70
2022-09-02T08:50:15.050Z,86.00
2022-09-02T08:53:04.163Z,85.40
2022-09-02T08:55:47.328Z,85.20
2022-09-02T08:58:23.321Z,83.90
2022-09-02T09:01:04.978Z,83.50
2022-09-02T09:03:48.009Z,84.90
2022-09-02T09:06:23.938Z,83.40
2022-09-02T09:09:05.078Z,83.80
2022-09-02T09:11:38.849Z,83.60
2022-09-02T09:14:18.255Z,82.10
2022-09-02T09:16:59.623Z,79.30
2022-09-02T09:19:42.917Z,76.30
2022-09-02T09:22:16.683Z,77.60
2022-09-02T09:24:51.469Z,79.10
2022-09-02T09:27:24.258Z,79.60
2022-09-02T09:29:56.349Z,81.60
2022-09-02T09:32:30.055Z,80.90
2022-09-02T09:35:09.840Z,79.90
2022-09-02T09:37:43.223Z,79.30
2022-09-02T09:40:24.806Z,79.00
2022-09-02T09:43:13.147Z,80.00
2022-09-02T09:45:47.764Z,79.90
2022-09-02T09:48:30.255Z,81.20
2022-09-02T09:51:01.914Z,80.00
2022-09-02T09:53:36.764Z,79.00
2022-09-02T09:56:14.449Z,77.20
2022-09-02T09:58:47.962Z,77.30
2022-09-02T10:01:21.687Z,77.10
2022-09-02T10:03:57.790Z,77.10
2022-09-02T10:06:29.411Z,77.10
2022-09-02T10:09:28.428Z,77.10
2022-09-02T10:12:05.732Z,77.30
2022-09-02T10:14:44.239Z,77.00
2022-09-02T10:17:18.964Z,77.40
2022-09-02T10:20:11.822Z,76.80
2022-09-02T10:22:59.874Z,76.50
2022-09-02T10:25:39.094Z,75.80
2022-09-02T10:28:21.408Z,75.90
2022-09-02T10:31:12.233Z,76.20
2022-09-02T10:33:57.799Z,76.00
2022-09-02T10:36:41.684Z,75.90
2022-09-02T10:39:17.317Z,76.10
2022-09-02T10:41:49.717Z,76.10
2022-09-02T10:44:28.487Z,75.70
2022-09-02T10:47:06.826Z,75.20
2022-09-02T10:49:51.861Z,74.40
2022-09-02T10:52:42.912Z,74.30
2022-09-02T10:55:38.594Z,74.20
2022-09-02T10:58:21.903Z,74.50
2022-09-02T11:00:56.140Z,74.20
2022-09-02T11:03:35.065Z,74.30
2022-09-02T11:06:14.894Z,73.70
2022-09-02T11:08:49.917Z,73.50
2022-09-02T11:11:25.455Z,73.80
2022-09-02T11:14:01.903Z,74.00
2022-09-02T11:16:47.206Z,74.80
2022-09-02T11:19:26.124Z,74.80
2022-09-02T11:22:02.036Z,76.50
2022-09-02T11:24:34.612Z,75.60
2022-09-02T11:27:42.029Z,73.90
2022-09-02T11:30:20.092Z,73.20
2022-09-02T11:32:55.958Z,74.80
2022-09-02T11:35:30.163Z,73.70
2022-09-02T11:38:04.179Z,74.00
2022-09-02T11:40:44.702Z,73.50
2022-09-02T11:43:32.344Z,73.50
2022-09-02T11:46:25.968Z,74.80
2022-09-02T11:49:02.059Z,74.10
2022-09-02T11:51:46.398Z,74.60
2022-09-02T11:54:19.755Z,74.10
2022-09-02T11:56:57.156Z,74.00
2022-09-02T11:59:48.189Z,74.20
2022-09-02T12:02:38.328Z,75.20
2022-09-02T12:05:30.422Z,73.60
2022-09-02T12:08:06.566Z,73.20
2022-09-02T12:10:39.378Z,72.80
2022-09-02T12:13:31.980Z,74.30
2022-09-02T12:16:17.029Z,73.60
2022-09-02T12:18:53.534Z,73.50
2022-09-02T12:21:26.977Z,75.30
2022-09-02T12:23:59.064Z,76.50
2022-09-02T12:26:50.663Z,76.40
2022-09-02T12:29:27.292Z,76.90
2022-09-02T12:31:59.124Z,75.60
2022-09-02T12:34:31.603Z,75.20
2022-09-02T12:37:03.546Z,76.30
2022-09-02T12:39:45.618Z,76.80
2022-09-02T12:42:31.120Z,76.80
2022-09-02T12:45:28.276Z,76.60
2022-09-02T12:48:00.870Z,75.90
2022-09-02T12:50:51.396Z,76.40
2022-09-02T12:53:23.545Z,76.30
2022-09-02T12:55:57.957Z,77.10
2022-09-02T12:58:33.788Z,76.90
2022-09-02T13:01:14.672Z,76.10
2022-09-02T13:03:57.962Z,77.00
2022-09-02T13:06:58.286Z,76.20
2022-09-02T13:09:49.216Z,76.30
2022-09-02T13:12:40.038Z,76.70
2022-09-02T13:15:23.145Z,76.20
2022-09-02T13:18:10.366Z,75.40
2022-09-02T13:20:42.930Z,75.80
2022-09-02T13:23:39.384Z,75.20
2022-09-02T13:26:47.776Z,75.10
2022-09-02T13:29:41.286Z,75.80
2022-09-02T13:32:16.197Z,76.90
2022-09-02T13:34:49.825Z,75.90
2022-09-02T13:37:37.850Z,76.00
2022-09-02T13:40:24.508Z,76.20
2022-09-02T13:42:58.443Z,76.40
2022-09-02T13:45:33.064Z,76.70
2022-09-02T13:48:15.290Z,76.10
2022-09-02T13:50:48.462Z,76.60
2022-09-02T13:54:04.960Z,76.90
2022-09-02T13:56:28.219Z,76.70
2022-09-02T13:59:00.834Z,76.20
2022-09-02T14:01:33.085Z,76.10
2022-09-02T14:04:14.715Z,76.40
2022-09-02T14:06:48.661Z,76.80
2022-09-02T14:09:21.937Z,76.60
2022-09-02T14:11:55.383Z,77.60
2022-09-02T14:14:27.197Z,78.10
2022-09-02T14:17:38.514Z,77.30
2022-09-02T14:20:15.924Z,77.80
2022-09-02T14:22:55.389Z,77.90
2022-09-02T14:25:30.060Z,77.20
2022-09-02T14:28:06.412Z,78.00
2022-09-02T14:30:39.590Z,78.20
2022-09-02T14:33:17.940Z,78.40
2022-09-02T14:36:12.343Z,78.00
2022-09-02T14:38:46.999Z,78.10
2022-09-02T14:41:24.635Z,78.00
2022-09-02T14:43:59.721Z,77.80
2022-09-02T14:46:33.592Z,77.50
2022-09-02T14:49:07.781Z,77.80
2022-09-02T14:51:46.306Z,78.00
2022-09-02T14:54:44.460Z,77.70
2022-09-02T14:57:29.966Z,79.00
2022-09-02T15:00:09.148Z,79.60
2022-09-02T15:02:47.685Z,80.20
2022-09-02T15:05:19.905Z,81.10
2022-09-02T15:07:51.841Z,81.60
2022-09-02T15:10:24.335Z,81.60
2022-09-02T15:12:57.549Z,82.00
2022-09-02T15:15:30.108Z,82.10
2022-09-02T15:18:03.104Z,82.70
2022-09-02T15:20:38.512Z,82.70
2022-09-02T15:23:11.411Z,82.20
2022-09-02T15:25:43.126Z,82.60
2022-09-02T15:28:15.592Z,83.10
2022-09-02T15:30:47.740Z,83.70
2022-09-02T15:33:19.564Z,83.80
2022-09-02T15:35:52.095Z,83.90
2022-09-02T15:38:23.762Z,83.40
2022-09-02T15:40:57.479Z,83.70
2022-09-02T15:43:29.317Z,83.70
2022-09-02T15:46:01.886Z,83.80
2022-09-02T15:48:34.067Z,84.10
2022-09-02T15:51:11.161Z,84.40
2022-09-02T15:53:45.247Z,83.90
2022-09-02T15:56:20.883Z,83.70
2022-09-02T15:59:03.943Z,83.90
2022-09-02T16:01:37.764Z,83.70
2022-09-02T16:04:11.151Z,85.40
2022-09-02T16:06:44.163Z,85.10
2022-09-02T16:09:17.481Z,82.80
2022-09-02T16:11:51.841Z,83.40
2022-09-02T16:14:24.168Z,83.60
2022-09-02T16:16:57.366Z,84.00
2022-09-02T16:19:30.438Z,84.10
2022-09-02T16:22:03.189Z,84.50
2022-09-02T16:24:35.315Z,84.70
2022-09-02T16:27:07.064Z,84.90
2022-09-02T16:29:40.254Z,85.20
2022-09-02T16:32:26.758Z,85.80
2022-09-02T16:35:21.455Z,86.40
2022-09-02T16:37:57.443Z,87.70
2022-09-02T16:40:29.916Z,87.50
2022-09-02T16:43:02.010Z,87.50
2022-09-02T16:45:34.138Z,87.90
2022-09-02T16:48:05.766Z,88.00
2022-09-02T16:50:38.335Z,88.40
2022-09-02T16:53:11.030Z,88.40
2022-09-02T16:55:44.440Z,88.60
2022-09-02T16:58:16.154Z,87.70
2022-09-02T17:00:48.639Z,87.40
2022-09-02T17:03:20.858Z,87.90
2022-09-02T17:05:52.591Z,88.00
2022-09-02T17:08:25.081Z,89.60
2022-09-02T17:11:26.686Z,88.90
2022-09-02T17:14:04.299Z,88.40
2022-09-02T17:16:37.573Z,89.10
2022-09-02T17:19:12.255Z,90.10
2022-09-02T17:21:45.027Z,90.10
2022-09-02T17:24:18.887Z,90.60
2022-09-02T17:26:51.561Z,92.30
2022-09-02T17:32:17.918Z,93.30
2022-09-02T17:34:50.810Z,94.10
2022-09-02T17:37:22.927Z,95.00
2022-09-02T17:39:54.680Z,95.50
2022-09-02T17:42:27.229Z,95.60
2022-09-02T17:44:58.932Z,96.30
2022-09-02T17:47:32.113Z,96.40
2022-09-02T17:50:05.867Z,96.80
2022-09-02T17:52:37.998Z,96.10
2022-09-02T17:55:10.109Z,97.60
2022-09-02T17:57:59.657Z,97.10
2022-09-02T18:00:36.080Z,96.60
2022-09-02T18:03:20.231Z,97.50
2022-09-02T18:06:00.499Z,96.80
2022-09-02T18:08:38.726Z,98.00
2022-09-02T18:11:11.465Z,99.00
2022-09-02T18:13:54.457Z,99.70
2022-09-02T18:16:32.116Z,99.90
2022-09-02T18:19:06.908Z,99.90
2022-09-02T18:21:48.846Z,99.90
2022-09-02T18:24:33.756Z,99.90
2022-09-02T18:27:05.394Z,99.90
2022-09-02T18:29:55.777Z,99.90
2022-09-02T18:32:28.076Z,99.90
2022-09-02T18:35:02.934Z,99.90
2022-09-02T18:37:57.058Z,99.90
2022-09-02T18:41:08.245Z,99.90
2022-09-02T18:43:57.204Z,99.90
2022-09-02T18:46:34.520Z,99.90
2022-09-02T18:49:06.426Z,99.90
2022-09-02T18:51:41.307Z,99.90
2022-09-02T18:54:13.115Z,99.90
2022-09-02T18:56:50.188Z,99.90
2022-09-02T18:59:28.611Z,99.90
2022-09-02T19:02:03.800Z,99.90
2022-09-02T19:04:36.981Z,99.90
2022-09-02T19:07:29.177Z,99.90
2022-09-02T19:10:03.819Z,99.90
2022-09-02T19:12:36.817Z,99.90
2022-09-02T19:15:10.002Z,99.90
2022-09-02T19:17:46.140Z,99.90
2022-09-02T19:20:19.158Z,99.90
2022-09-02T19:22:52.609Z,99.90
2022-09-02T19:25:27.050Z,99.90
2022-09-02T19:28:02.457Z,99.90
2022-09-02T19:30:37.358Z,99.90
2022-09-02T19:33:10.468Z,99.90
2022-09-02T19:35:44.921Z,99.90
2022-09-02T19:38:17.575Z,99.90
2022-09-02T19:40:50.057Z,99.90
2022-09-02T19:43:23.482Z,99.90
2022-09-02T19:45:55.984Z,99.90
2022-09-02T19:48:27.707Z,99.90
2022-09-02T19:51:00.307Z,99.90
2022-09-02T19:53:32.854Z,99.90
2022-09-02T19:56:06.971Z,99.90
2022-09-02T19:58:39.316Z,99.90
2022-09-02T20:01:12.125Z,99.90
2022-09-02T20:03:46.439Z,99.90
2022-09-02T20:06:19.262Z,99.90
2022-09-02T20:08:51.661Z,99.90
2022-09-02T20:11:24.192Z,99.90
2022-09-02T20:13:56.958Z,99.90
2022-09-02T20:16:29.543Z,99.90
2022-09-02T20:19:01.302Z,99.90
2022-09-02T20:21:42.630Z,99.90
2022-09-02T20:24:16.867Z,99.90
2022-09-02T20:27:02.663Z,99.90
2022-09-02T20:29:34.745Z,99.90
2022-09-02T20:32:19.331Z,99.90
2022-09-02T20:34:51.380Z,99.90
2022-09-02T20:37:29.225Z,99.90
2022-09-02T20:40:05.264Z,99.90
2022-09-02T20:42:55.730Z,99.90
2022-09-02T20:45:33.240Z,99.90
2022-09-02T20:48:28.295Z,99.90
2022-09-02T20:51:05.403Z,99.90
2022-09-02T20:53:45.007Z,99.90
2022-09-02T20:56:23.011Z,99.90
2022-09-02T20:59:01.612Z,99.90
2022-09-02T21:01:35.361Z,99.90
2022-09-02T21:04:26.105Z,99.90
2022-09-02T21:07:06.027Z,99.90
2022-09-02T21:09:45.103Z,99.90
2022-09-02T21:12:37.242Z,99.90
2022-09-02T21:15:10.917Z,99.90
2022-09-02T21:18:16.156Z,99.90
2022-09-02T21:20:51.250Z,99.90
2022-09-02T21:23:28.832Z,99.90
2022-09-02T21:26:05.903Z,99.90
2022-09-02T21:28:41.959Z,99.90
2022-09-02T21:31:23.803Z,99.90
2022-09-02T21:33:59.033Z,99.90
2022-09-02T21:36:32.756Z,99.90
2022-09-02T21:39:11.734Z,99.90
2022-09-02T21:41:48.158Z,99.90
2022-09-02T21:44:26.637Z,99.90
2022-09-02T21:47:26.060Z,99.90
2022-09-02T21:50:05.000Z,99.90
2022-09-02T21:53:03.991Z,99.90
2022-09-02T21:55:52.119Z,99.90
2022-09-02T21:58:30.888Z,99.90
2022-09-02T22:01:21.658Z,99.90
2022-09-02T22:03:57.290Z,99.90
2022-09-02T22:06:35.194Z,99.90
2022-09-02T22:09:11.361Z,99.90
2022-09-02T22:11:50.725Z,99.90
2022-09-02T22:14:46.502Z,99.90
2022-09-02T22:17:24.898Z,99.90
2022-09-02T22:19:59.592Z,99.90
2022-09-02T22:22:34.724Z,99.90
2022-09-02T22:25:16.005Z,99.90
2022-09-02T22:27:52.276Z,99.90
2022-09-02T22:30:24.410Z,99.90
2022-09-02T22:33:03.007Z,99.90
2022-09-02T22:35:58.208Z,99.90
2022-09-02T22:38:33.779Z,99.90
2022-09-02T22:41:25.141Z,99.90
2022-09-02T22:44:06.695Z,99.90
2022-09-02T22:47:03.853Z,99.90
2022-09-02T22:49:56.790Z,99.90
2022-09-02T22:52:46.535Z,99.90
2022-09-02T22:55:24.103Z,99.90
2022-09-02T22:58:16.431Z,99.90
2022-09-02T23:00:57.776Z,99.90
2022-09-02T23:03:47.948Z,99.90
2022-09-02T23:06:26.977Z,99.90
2022-09-02T23:09:09.654Z,99.90
2022-09-02T23:11:51.324Z,99.90
2022-09-02T23:14:44.763Z,99.90
2022-09-02T23:17:23.710Z,99.90
2022-09-02T23:20:02.438Z,99.90
2022-09-02T23:22:43.790Z,99.90
2022-09-02T23:25:34.336Z,99.90
2022-09-02T23:28:15.694Z,99.90
2022-09-02T23:31:03.399Z,99.90
2022-09-02T23:33:53.733Z,99.90
2022-09-02T23:36:35.558Z,99.90
2022-09-02T23:39:18.989Z,99.90
2022-09-02T23:41:53.794Z,99.90
2022-09-02T23:44:26.058Z,99.90
2022-09-02T23:47:23.164Z,99.90
2022-09-02T23:50:17.939Z,99.90
2022-09-02T23:52:56.738Z,99.90
2022-09-02T23:55:46.167Z,99.90
2022-09-02T23:58:29.007Z,99.90
